createdAt,value
2022-10-18T00:02:20.389Z,75.16
2022-10-18T00:04:47.759Z,75.73
2022-10-18T00:07:14.662Z,75.73
2022-10-18T00:09:41.435Z,75.70
2022-10-18T00:12:08.209Z,75.76
2022-10-18T00:14:35.061Z,75.86
2022-10-18T00:17:02.114Z,75.40
2022-10-18T00:19:29.487Z,75.66
2022-10-18T00:21:56.424Z,76.01
2022-10-18T00:24:23.219Z,75.75
2022-10-18T00:26:49.955Z,75.79
2022-10-18T00:29:17.025Z,75.66
2022-10-18T00:31:44.482Z,76.08
2022-10-18T00:34:13.794Z,75.80
2022-10-18T00:36:40.820Z,76.01
2022-10-18T00:39:08.991Z,75.99
2022-10-18T00:41:38.030Z,75.82
2022-10-18T00:44:10.804Z,75.82
2022-10-18T00:46:40.337Z,76.06
2022-10-18T00:49:11.409Z,76.12
2022-10-18T00:52:04.217Z,76.15
2022-10-18T00:54:33.370Z,76.02
2022-10-18T00:57:01.013Z,75.46
2022-10-18T00:59:28.336Z,75.45
2022-10-18T01:01:55.085Z,76.81
2022-10-18T01:04:22.365Z,76.70
2022-10-18T01:07:16.446Z,77.05
2022-10-18T01:10:00.820Z,76.00
2022-10-18T01:12:56.061Z,76.46
2022-10-18T01:15:32.298Z,77.09
2022-10-18T01:18:02.034Z,77.23
2022-10-18T01:20:59.928Z,76.76
2022-10-18T01:24:08.802Z,76.67
2022-10-18T01:27:00.567Z,77.34
2022-10-18T01:30:04.591Z,76.83
2022-10-18T01:32:38.816Z,77.58
2022-10-18T01:35:11.919Z,77.83
2022-10-18T01:37:39.488Z,77.97
2022-10-18T01:40:07.436Z,76.95
2022-10-18T01:42:34.858Z,77.29
2022-10-18T01:45:02.136Z,76.91
2022-10-18T01:47:29.270Z,77.29
2022-10-18T01:50:00.786Z,77.40
2022-10-18T01:52:27.776Z,77.54
2022-10-18T01:54:55.595Z,77.47
2022-10-18T01:57:51.696Z,77.09
2022-10-18T02:00:26.760Z,76.86
2022-10-18T02:03:02.427Z,76.95
2022-10-18T02:05:31.947Z,77.67
2022-10-18T02:08:22.908Z,78.11
2022-10-18T02:11:11.156Z,78.13
2022-10-18T02:13:59.462Z,77.75
2022-10-18T02:16:30.089Z,78.17
2022-10-18T02:19:06.903Z,78.44
2022-10-18T02:21:34.334Z,78.04
2022-10-18T02:24:02.342Z,78.87
2022-10-18T02:26:29.744Z,78.17
2022-10-18T02:28:56.678Z,78.28
2022-10-18T02:31:29.002Z,77.48
2022-10-18T02:34:21.023Z,76.88
2022-10-18T02:36:48.563Z,78.33
2022-10-18T02:39:19.070Z,77.56
2022-10-18T02:41:45.928Z,79.12
2022-10-18T02:44:16.714Z,77.74
2022-10-18T02:46:51.823Z,77.48
2022-10-18T02:49:18.620Z,78.15
2022-10-18T02:51:45.505Z,76.94
2022-10-18T02:54:12.314Z,78.10
2022-10-18T02:56:39.124Z,78.00
2022-10-18T02:59:07.516Z,77.67
2022-10-18T03:01:36.246Z,77.96
2022-10-18T03:04:04.083Z,77.67
2022-10-18T03:06:31.803Z,77.99
2022-10-18T03:08:58.619Z,78.16
2022-10-18T03:11:25.404Z,78.61
2022-10-18T03:13:52.227Z,78.90
2022-10-18T03:16:19.069Z,78.58
2022-10-18T03:18:46.012Z,79.05
2022-10-18T03:21:12.874Z,78.47
2022-10-18T03:23:41.816Z,78.15
2022-10-18T03:26:09.502Z,77.77
2022-10-18T03:28:36.348Z,77.76
2022-10-18T03:31:04.423Z,77.49
2022-10-18T03:33:32.533Z,77.89
2022-10-18T03:35:59.384Z,77.77
2022-10-18T03:38:26.395Z,77.96
2022-10-18T03:40:53.183Z,78.11
2022-10-18T03:43:20.027Z,78.27
2022-10-18T03:45:46.797Z,77.67
2022-10-18T03:48:13.979Z,78.05
2022-10-18T03:50:40.858Z,77.19
2022-10-18T03:53:07.679Z,77.26
2022-10-18T03:55:34.626Z,77.99
2022-10-18T03:58:01.498Z,77.10
2022-10-18T04:00:28.374Z,77.43
2022-10-18T04:02:56.087Z,77.51
2022-10-18T04:05:24.207Z,77.37
2022-10-18T04:07:50.975Z,77.29
2022-10-18T04:10:18.742Z,77.26
2022-10-18T04:12:47.770Z,76.38
2022-10-18T04:15:14.845Z,77.10
2022-10-18T04:17:42.317Z,77.56
2022-10-18T04:20:09.693Z,78.41
2022-10-18T04:22:36.734Z,77.80
2022-10-18T04:25:04.391Z,78.86
2022-10-18T04:27:31.568Z,78.60
2022-10-18T04:29:58.736Z,79.07
2022-10-18T04:32:27.900Z,79.32
2022-10-18T04:34:54.726Z,79.24
2022-10-18T04:37:21.725Z,79.46
2022-10-18T04:39:51.354Z,79.06
2022-10-18T04:42:21.140Z,78.81
2022-10-18T04:44:47.992Z,78.93
2022-10-18T04:47:15.038Z,78.16
2022-10-18T04:49:41.891Z,78.37
2022-10-18T04:52:08.881Z,77.93
2022-10-18T04:54:35.816Z,78.46
2022-10-18T04:57:02.632Z,78.01
2022-10-18T04:59:29.502Z,77.97
2022-10-18T05:01:56.425Z,78.10
2022-10-18T05:04:23.400Z,78.12
2022-10-18T05:06:50.265Z,78.69
2022-10-18T05:09:17.045Z,78.08
2022-10-18T05:11:44.154Z,77.59
2022-10-18T05:14:10.966Z,76.84
2022-10-18T05:16:37.776Z,77.10
2022-10-18T05:19:05.823Z,76.83
2022-10-18T05:21:33.459Z,76.70
2022-10-18T05:24:00.495Z,77.35
2022-10-18T05:26:27.359Z,77.63
2022-10-18T05:28:54.389Z,77.47
2022-10-18T05:31:21.602Z,77.51
2022-10-18T05:33:48.393Z,76.94
2022-10-18T05:36:15.323Z,76.81
2022-10-18T05:38:43.041Z,76.73
2022-10-18T05:41:10.672Z,76.85
2022-10-18T05:43:37.930Z,76.72
2022-10-18T05:46:06.503Z,76.76
2022-10-18T05:48:36.072Z,76.58
2022-10-18T05:51:02.957Z,76.22
2022-10-18T05:53:38.011Z,75.71
2022-10-18T05:56:06.289Z,75.41
2022-10-18T05:58:33.594Z,74.96
2022-10-18T06:01:04.590Z,74.94
2022-10-18T06:03:31.690Z,74.85
2022-10-18T06:06:06.177Z,74.35
2022-10-18T06:08:33.262Z,74.27
2022-10-18T06:11:00.158Z,73.80
2022-10-18T06:13:28.276Z,73.38
2022-10-18T06:15:57.717Z,72.98
2022-10-18T06:18:24.805Z,73.30
2022-10-18T06:20:59.101Z,72.67
2022-10-18T06:23:38.190Z,72.46
2022-10-18T06:26:18.803Z,71.48
2022-10-18T06:28:51.859Z,70.64
2022-10-18T06:31:24.476Z,69.91
2022-10-18T06:33:53.533Z,70.02
2022-10-18T06:36:24.200Z,68.09
2022-10-18T06:38:56.211Z,68.08
2022-10-18T06:41:42.324Z,67.15
2022-10-18T06:44:21.834Z,67.22
2022-10-18T06:46:59.827Z,67.19
2022-10-18T06:49:36.419Z,66.27
2022-10-18T06:52:11.671Z,66.63
2022-10-18T06:54:38.781Z,65.27
2022-10-18T06:57:08.883Z,65.59
2022-10-18T06:59:36.010Z,64.64
2022-10-18T07:02:10.846Z,63.65
2022-10-18T07:07:41.558Z,62.48
2022-10-18T07:10:13.041Z,61.77
2022-10-18T07:12:43.845Z,60.27
2022-10-18T07:15:17.995Z,59.17
2022-10-18T07:17:51.331Z,58.49
2022-10-18T07:20:39.388Z,58.50
2022-10-18T07:23:25.708Z,56.48
2022-10-18T07:26:28.136Z,54.79
2022-10-18T07:29:16.181Z,54.17
2022-10-18T07:32:27.580Z,52.79
2022-10-18T07:40:18.663Z,50.21
2022-10-18T07:42:45.428Z,48.49
2022-10-18T07:45:13.667Z,48.26
2022-10-18T07:47:40.817Z,48.89
2022-10-18T07:50:08.479Z,47.53
2022-10-18T07:52:35.229Z,47.43
2022-10-18T07:55:01.961Z,46.08
2022-10-18T07:57:28.668Z,44.99
2022-10-18T07:59:57.071Z,44.33
2022-10-18T08:02:24.456Z,42.96
2022-10-18T08:04:51.214Z,43.42
2022-10-18T08:07:18.033Z,42.06
2022-10-18T08:09:44.873Z,41.42
2022-10-18T08:12:11.702Z,40.73
2022-10-18T08:14:38.492Z,40.76
2022-10-18T08:17:05.242Z,39.29
2022-10-18T08:19:32.147Z,39.72
2022-10-18T08:21:58.864Z,39.23
2022-10-18T08:24:25.655Z,38.87
2022-10-18T08:26:52.452Z,37.92
2022-10-18T08:29:23.340Z,38.26
2022-10-18T08:31:51.775Z,37.40
2022-10-18T08:34:19.794Z,36.21
2022-10-18T08:36:46.931Z,35.71
2022-10-18T08:39:13.794Z,36.47
2022-10-18T08:42:11.742Z,35.46
2022-10-18T08:44:45.901Z,36.09
2022-10-18T08:47:27.042Z,35.28
2022-10-18T08:50:00.542Z,34.43
2022-10-18T08:52:34.804Z,34.49
2022-10-18T08:55:04.637Z,33.93
2022-10-18T08:57:32.464Z,33.57
2022-10-18T08:59:59.279Z,33.24
2022-10-18T09:02:38.744Z,32.77
2022-10-18T09:05:15.229Z,32.71
2022-10-18T09:07:45.120Z,32.23
2022-10-18T09:10:11.894Z,32.42
2022-10-18T09:13:16.180Z,31.49
2022-10-18T09:15:52.375Z,31.00
2022-10-18T09:18:38.163Z,30.35
2022-10-18T09:21:46.698Z,29.73
2022-10-18T09:24:29.205Z,29.62
2022-10-18T09:27:00.284Z,29.49
2022-10-18T09:29:33.193Z,28.75
2022-10-18T09:32:34.835Z,28.74
2022-10-18T09:35:15.958Z,27.95
2022-10-18T09:37:43.523Z,27.44
2022-10-18T09:40:26.270Z,27.03
2022-10-18T09:43:13.088Z,25.13
2022-10-18T09:45:43.584Z,26.07
2022-10-18T09:48:48.527Z,26.70
2022-10-18T09:51:24.145Z,25.23
2022-10-18T09:54:15.374Z,25.48
2022-10-18T09:57:04.247Z,23.98
2022-10-18T09:59:47.097Z,24.14
2022-10-18T10:02:15.876Z,25.30
2022-10-18T10:04:43.041Z,24.52
2022-10-18T10:07:14.077Z,23.85
2022-10-18T10:09:46.283Z,23.61
2022-10-18T10:12:28.234Z,24.24
2022-10-18T10:14:55.230Z,24.18
2022-10-18T10:17:26.233Z,24.22
2022-10-18T10:20:20.819Z,24.46
2022-10-18T10:22:47.985Z,22.98
2022-10-18T10:25:32.051Z,24.18
2022-10-18T10:28:04.225Z,23.37
2022-10-18T10:30:34.272Z,23.97
2022-10-18T10:33:01.495Z,23.33
2022-10-18T10:35:52.502Z,22.36
2022-10-18T10:38:25.732Z,22.63
2022-10-18T10:40:53.114Z,21.63
2022-10-18T10:43:37.089Z,23.07
2022-10-18T10:46:10.790Z,21.09
2022-10-18T10:48:50.538Z,21.39
2022-10-18T10:51:38.466Z,22.47
2022-10-18T10:54:08.181Z,22.20
2022-10-18T10:56:59.153Z,20.80
2022-10-18T10:59:28.521Z,21.15
2022-10-18T11:02:14.330Z,20.01
2022-10-18T11:04:42.223Z,21.01
2022-10-18T11:07:33.593Z,20.91
2022-10-18T11:10:11.358Z,20.84
2022-10-18T11:12:38.878Z,20.91
2022-10-18T11:15:14.672Z,20.43
2022-10-18T11:18:01.389Z,19.34
2022-10-18T11:20:29.772Z,19.82
2022-10-18T11:22:56.521Z,19.89
2022-10-18T11:25:25.944Z,19.72
2022-10-18T11:28:27.149Z,19.98
2022-10-18T11:31:23.266Z,19.11
2022-10-18T11:34:20.980Z,17.85
2022-10-18T11:37:30.103Z,17.68
2022-10-18T11:40:09.896Z,13.85
2022-10-18T11:42:42.623Z,15.14
2022-10-18T11:48:04.686Z,15.90
2022-10-18T11:50:31.460Z,15.66
2022-10-18T11:53:01.335Z,15.51
2022-10-18T11:55:37.131Z,14.42
2022-10-18T11:58:15.708Z,14.46
2022-10-18T12:01:04.555Z,14.51
2022-10-18T12:03:41.055Z,14.56
2022-10-18T12:06:15.696Z,14.46
2022-10-18T12:08:53.324Z,13.89
2022-10-18T12:11:24.450Z,14.24
2022-10-18T12:14:13.230Z,14.60
2022-10-18T12:17:20.361Z,13.48
2022-10-18T12:19:33.095Z,14.30
2022-10-18T12:22:35.494Z,14.14
2022-10-18T12:25:02.693Z,13.52
2022-10-18T12:27:38.675Z,13.70
2022-10-18T12:30:14.727Z,13.85
2022-10-18T12:32:56.294Z,12.95
2022-10-18T12:35:32.362Z,14.04
2022-10-18T12:38:08.260Z,12.74
2022-10-18T12:40:43.700Z,14.15
2022-10-18T12:43:18.175Z,13.25
2022-10-18T12:45:56.941Z,12.04
2022-10-18T12:48:45.680Z,12.96
2022-10-18T12:51:21.386Z,12.33
2022-10-18T12:54:01.771Z,12.51
2022-10-18T12:56:28.472Z,12.61
2022-10-18T12:59:13.869Z,12.86
2022-10-18T13:01:52.927Z,12.68
2022-10-18T13:04:28.717Z,12.73
2022-10-18T13:06:58.590Z,12.89
2022-10-18T13:09:30.737Z,11.80
2022-10-18T13:12:20.148Z,11.86
2022-10-18T13:15:12.453Z,11.82
2022-10-18T13:17:50.136Z,12.37
2022-10-18T13:20:28.170Z,11.83
2022-10-18T13:23:35.357Z,12.35
2022-10-18T13:26:19.651Z,11.72
2022-10-18T13:29:24.908Z,11.97
2022-10-18T13:32:07.355Z,12.37
2022-10-18T13:34:38.205Z,11.85
2022-10-18T13:37:06.833Z,12.32
2022-10-18T13:39:33.868Z,11.47
2022-10-18T13:42:00.790Z,11.01
2022-10-18T13:44:40.110Z,11.42
2022-10-18T13:47:07.107Z,11.80
2022-10-18T13:49:39.770Z,12.75
2022-10-18T13:52:34.417Z,11.24
2022-10-18T13:55:04.288Z,11.16
2022-10-18T13:57:37.088Z,11.90
2022-10-18T14:00:18.884Z,11.43
2022-10-18T14:02:56.770Z,10.92
2022-10-18T14:05:46.589Z,11.46
2022-10-18T14:08:20.784Z,11.26
2022-10-18T14:11:07.285Z,11.40
2022-10-18T14:13:43.745Z,11.25
2022-10-18T14:16:25.166Z,11.62
2022-10-18T14:18:55.689Z,12.13
2022-10-18T14:21:31.471Z,13.42
2022-10-18T14:23:58.980Z,14.88
2022-10-18T14:26:29.245Z,17.16
2022-10-18T14:29:07.251Z,18.48
2022-10-18T14:31:34.744Z,20.14
2022-10-18T14:34:01.903Z,21.00
2022-10-18T14:36:41.023Z,22.29
2022-10-18T14:39:18.844Z,24.10
2022-10-18T14:41:53.495Z,24.93
2022-10-18T14:44:27.733Z,25.58
2022-10-18T14:47:31.313Z,26.13
2022-10-18T14:49:58.383Z,26.52
2022-10-18T14:52:35.297Z,27.37
2022-10-18T14:55:02.735Z,27.45
2022-10-18T14:57:36.415Z,28.11
2022-10-18T15:00:21.173Z,28.07
2022-10-18T15:02:48.067Z,28.67
2022-10-18T15:05:22.292Z,29.05
2022-10-18T15:07:51.242Z,28.85
2022-10-18T15:10:22.259Z,28.84
2022-10-18T15:13:08.799Z,28.57
2022-10-18T15:15:36.252Z,29.76
2022-10-18T15:18:05.288Z,28.98
2022-10-18T15:20:42.287Z,29.52
2022-10-18T15:23:20.900Z,29.36
2022-10-18T15:25:47.711Z,29.74
2022-10-18T15:28:32.816Z,29.38
2022-10-18T15:31:01.887Z,29.54
2022-10-18T15:33:34.517Z,29.65
2022-10-18T15:36:11.961Z,30.26
2022-10-18T15:38:38.897Z,29.72
2022-10-18T15:41:45.800Z,29.98
2022-10-18T15:44:34.880Z,30.03
2022-10-18T15:47:13.930Z,30.23
2022-10-18T15:49:46.771Z,30.07
2022-10-18T15:52:37.409Z,29.70
2022-10-18T15:55:29.937Z,28.91
2022-10-18T15:58:04.760Z,29.43
2022-10-18T16:00:31.545Z,29.25
2022-10-18T16:02:58.307Z,29.69
2022-10-18T16:05:25.788Z,30.38
2022-10-18T16:07:52.872Z,29.63
2022-10-18T16:10:19.666Z,30.52
2022-10-18T16:12:46.510Z,30.36
2022-10-18T16:15:13.415Z,29.76
2022-10-18T16:17:40.201Z,29.66
2022-10-18T16:20:09.771Z,29.99
2022-10-18T16:22:37.151Z,29.73
2022-10-18T16:25:04.303Z,30.18
2022-10-18T16:27:31.057Z,31.64
2022-10-18T16:29:57.934Z,33.64
2022-10-18T16:32:24.819Z,33.40
2022-10-18T16:34:51.606Z,33.52
2022-10-18T16:37:18.319Z,35.63
2022-10-18T16:39:45.099Z,35.99
2022-10-18T16:42:11.910Z,35.52
2022-10-18T16:44:38.723Z,36.67
2022-10-18T16:47:05.436Z,37.01
2022-10-18T16:49:32.253Z,38.27
2022-10-18T16:51:59.706Z,38.25
2022-10-18T16:54:26.485Z,38.95
2022-10-18T16:56:53.277Z,39.65
2022-10-18T16:59:30.984Z,40.66
2022-10-18T17:01:58.022Z,42.20
2022-10-18T17:04:25.044Z,42.40
2022-10-18T17:06:52.975Z,43.75
2022-10-18T17:09:19.775Z,43.53
2022-10-18T17:11:46.527Z,44.47
2022-10-18T17:14:13.230Z,44.98
2022-10-18T17:16:40.028Z,44.80
2022-10-18T17:19:08.239Z,44.89
2022-10-18T17:21:35.363Z,44.85
2022-10-18T17:24:03.275Z,44.67
2022-10-18T17:26:30.732Z,46.06
2022-10-18T17:29:00.226Z,46.21
2022-10-18T17:31:28.206Z,45.72
2022-10-18T17:33:55.434Z,46.53
2022-10-18T17:36:22.685Z,47.35
2022-10-18T17:38:56.127Z,48.50
2022-10-18T17:41:23.078Z,48.36
2022-10-18T17:43:50.044Z,48.80
2022-10-18T17:46:18.013Z,49.06
2022-10-18T17:48:45.662Z,48.96
2022-10-18T17:51:14.659Z,49.37
2022-10-18T17:53:41.440Z,50.67
2022-10-18T17:56:08.583Z,48.86
2022-10-18T17:58:35.699Z,46.62
2022-10-18T18:01:16.338Z,46.10
2022-10-18T18:03:43.405Z,46.29
2022-10-18T18:06:16.131Z,47.12
2022-10-18T18:08:43.017Z,47.14
2022-10-18T18:11:09.809Z,48.24
2022-10-18T18:13:36.620Z,48.69
2022-10-18T18:16:17.435Z,48.63
2022-10-18T18:18:45.056Z,48.85
2022-10-18T18:21:11.984Z,50.36
2022-10-18T18:23:38.892Z,50.46
2022-10-18T18:26:06.242Z,50.59
2022-10-18T18:28:34.559Z,50.43
2022-10-18T18:31:11.922Z,51.22
2022-10-18T18:33:38.799Z,51.56
2022-10-18T18:36:06.808Z,51.99
2022-10-18T18:38:34.903Z,51.11
2022-10-18T18:41:18.008Z,51.03
2022-10-18T18:43:49.495Z,50.32
2022-10-18T18:46:16.279Z,49.67
2022-10-18T18:48:43.129Z,49.44
2022-10-18T18:51:17.806Z,48.66
2022-10-18T18:53:45.400Z,49.83
2022-10-18T18:56:17.208Z,48.22
2022-10-18T18:58:44.268Z,48.29
2022-10-18T19:01:31.927Z,48.16
2022-10-18T19:03:59.995Z,48.79
2022-10-18T19:06:31.392Z,49.54
2022-10-18T19:09:01.666Z,49.54
2022-10-18T19:11:37.811Z,49.70
2022-10-18T19:15:06.834Z,49.43
2022-10-18T19:21:21.953Z,48.13
2022-10-18T19:23:50.240Z,47.70
2022-10-18T19:26:27.773Z,48.52
2022-10-18T19:28:55.001Z,49.87
2022-10-18T19:31:21.954Z,50.97
2022-10-18T19:33:59.304Z,52.31
2022-10-18T19:36:27.700Z,52.46
2022-10-18T19:38:54.663Z,54.35
2022-10-18T19:41:21.649Z,55.22
2022-10-18T19:43:48.548Z,53.81
2022-10-18T19:46:15.450Z,54.88
2022-10-18T19:48:42.346Z,54.74
2022-10-18T19:51:15.985Z,55.22
2022-10-18T19:53:46.393Z,55.63
2022-10-18T19:56:22.025Z,55.34
2022-10-18T19:58:49.589Z,55.79
2022-10-18T20:01:16.995Z,55.54
2022-10-18T20:03:44.491Z,55.86
2022-10-18T20:06:11.680Z,57.34
2022-10-18T20:08:39.590Z,57.52
2022-10-18T20:11:09.008Z,57.79
2022-10-18T20:13:36.295Z,57.19
2022-10-18T20:16:04.243Z,57.86
2022-10-18T20:18:31.288Z,58.12
2022-10-18T20:20:58.019Z,58.18
2022-10-18T20:23:25.079Z,59.37
2022-10-18T20:26:18.085Z,58.75
2022-10-18T20:28:57.016Z,58.65
2022-10-18T20:31:29.618Z,58.99
2022-10-18T20:34:01.192Z,60.17
2022-10-18T20:36:29.653Z,61.47
2022-10-18T20:38:57.016Z,60.42
2022-10-18T20:41:27.232Z,59.71
2022-10-18T20:43:58.990Z,60.71
2022-10-18T20:46:27.082Z,60.89
2022-10-18T20:48:54.366Z,62.17
2022-10-18T20:51:21.724Z,61.66
2022-10-18T20:53:48.843Z,62.30
2022-10-18T20:56:21.607Z,62.88
2022-10-18T20:58:50.443Z,62.40
2022-10-18T21:01:18.665Z,62.70
2022-10-18T21:03:47.204Z,63.13
2022-10-18T21:06:14.972Z,62.84
2022-10-18T21:08:42.244Z,61.38
2022-10-18T21:11:09.981Z,61.25
2022-10-18T21:13:37.087Z,60.68
2022-10-18T21:16:05.202Z,61.34
2022-10-18T21:18:33.944Z,60.64
2022-10-18T21:23:46.773Z,59.26
2022-10-18T21:26:19.028Z,60.47
2022-10-18T21:28:46.333Z,60.42
2022-10-18T21:31:17.378Z,61.38
2022-10-18T21:33:44.804Z,61.25
2022-10-18T21:36:12.897Z,60.64
2022-10-18T21:38:40.310Z,60.43
2022-10-18T21:41:11.176Z,61.07
2022-10-18T21:43:45.933Z,60.78
2022-10-18T21:46:13.612Z,61.24
2022-10-18T21:48:44.196Z,62.15
2022-10-18T21:51:11.517Z,61.99
2022-10-18T21:53:38.276Z,61.59
2022-10-18T21:56:10.876Z,62.17
2022-10-18T21:58:38.547Z,61.67
2022-10-18T22:01:23.175Z,61.54
2022-10-18T22:03:51.791Z,61.36
2022-10-18T22:06:18.993Z,61.62
2022-10-18T22:08:51.925Z,62.21
2022-10-18T22:11:20.395Z,62.25
2022-10-18T22:13:47.402Z,62.57
2022-10-18T22:16:15.840Z,62.78
2022-10-18T22:18:43.432Z,63.41
2022-10-18T22:21:11.773Z,62.78
2022-10-18T22:23:50.143Z,62.95
2022-10-18T22:26:23.917Z,62.23
2022-10-18T22:28:59.312Z,62.52
2022-10-18T22:31:28.696Z,62.09
2022-10-18T22:33:56.795Z,63.09
2022-10-18T22:36:25.698Z,63.24
2022-10-18T22:38:52.624Z,63.93
2022-10-18T22:41:19.823Z,63.60
2022-10-18T22:43:47.819Z,64.08
2022-10-18T22:46:15.032Z,64.21
2022-10-18T22:48:42.464Z,64.85
2022-10-18T22:51:09.429Z,64.17
2022-10-18T22:53:37.021Z,63.47
2022-10-18T22:56:04.578Z,63.46
2022-10-18T22:58:31.898Z,63.83
2022-10-18T23:01:13.240Z,64.06
2022-10-18T23:03:40.318Z,64.19
2022-10-18T23:06:20.356Z,64.73
2022-10-18T23:08:47.230Z,64.62
2022-10-18T23:11:14.445Z,64.58
2022-10-18T23:13:41.298Z,64.65
2022-10-18T23:16:08.149Z,64.76
2022-10-18T23:18:35.007Z,64.67
2022-10-18T23:21:06.802Z,63.96
2022-10-18T23:23:35.673Z,63.84
2022-10-18T23:26:17.019Z,64.54
2022-10-18T23:28:45.763Z,65.09
2022-10-18T23:31:15.244Z,65.54
2022-10-18T23:33:42.016Z,65.70
2022-10-18T23:36:09.005Z,65.45
2022-10-18T23:38:36.799Z,65.95
2022-10-18T23:41:04.663Z,66.11
2022-10-18T23:43:31.856Z,66.14
2022-10-18T23:45:58.789Z,66.18
2022-10-18T23:48:25.675Z,66.30
2022-10-18T23:50:52.739Z,65.59
2022-10-18T23:53:20.070Z,65.78
2022-10-18T23:55:54.117Z,65.35
2022-10-18T23:58:21.116Z,65.54
